sensor_id;sensor_type;location;lat;lon;timestamp;temperature;humidity
76613;DHT22;65507;48.454;-2.058;2023-05-27T00:00:26;14.20;65.30
76613;DHT22;65507;48.454;-2.058;2023-05-27T00:02:51;14.20;65.30
76613;DHT22;65507;48.454;-2.058;2023-05-27T00:05:17;14.20;65.40
76613;DHT22;65507;48.454;-2.058;2023-05-27T00:07:43;14.20;65.40
76613;DHT22;65507;48.454;-2.058;2023-05-27T00:10:08;14.20;65.40
76613;DHT22;65507;48.454;-2.058;2023-05-27T00:12:34;14.10;65.30
76613;DHT22;65507;48.454;-2.058;2023-05-27T00:14:59;14.10;65.40
76613;DHT22;65507;48.454;-2.058;2023-05-27T00:17:25;14.10;65.50
76613;DHT22;65507;48.454;-2.058;2023-05-27T00:19:51;14.10;65.60
76613;DHT22;65507;48.454;-2.058;2023-05-27T00:22:17;14.10;65.60
76613;DHT22;65507;48.454;-2.058;2023-05-27T00:24:42;14.00;65.70
76613;DHT22;65507;48.454;-2.058;2023-05-27T00:27:08;14.00;65.70
76613;DHT22;65507;48.454;-2.058;2023-05-27T00:29:35;14.00;65.80
76613;DHT22;65507;48.454;-2.058;2023-05-27T00:32:01;14.00;65.90
76613;DHT22;65507;48.454;-2.058;2023-05-27T00:34:29;13.90;65.90
76613;DHT22;65507;48.454;-2.058;2023-05-27T00:36:55;13.90;66.00
76613;DHT22;65507;48.454;-2.058;2023-05-27T00:39:21;13.90;66.10
76613;DHT22;65507;48.454;-2.058;2023-05-27T00:41:50;13.80;66.00
76613;DHT22;65507;48.454;-2.058;2023-05-27T00:44:16;13.80;66.00
76613;DHT22;65507;48.454;-2.058;2023-05-27T00:46:42;13.80;66.10
76613;DHT22;65507;48.454;-2.058;2023-05-27T00:49:08;13.70;66.20
76613;DHT22;65507;48.454;-2.058;2023-05-27T00:51:33;13.70;66.20
76613;DHT22;65507;48.454;-2.058;2023-05-27T00:53:59;13.70;66.20
76613;DHT22;65507;48.454;-2.058;2023-05-27T00:56:25;13.70;66.30
76613;DHT22;65507;48.454;-2.058;2023-05-27T00:58:51;13.70;66.20
76613;DHT22;65507;48.454;-2.058;2023-05-27T01:01:16;13.70;66.20
76613;DHT22;65507;48.454;-2.058;2023-05-27T01:03:42;13.70;66.20
76613;DHT22;65507;48.454;-2.058;2023-05-27T01:06:10;13.70;66.20
76613;DHT22;65507;48.454;-2.058;2023-05-27T01:08:40;13.60;66.20
76613;DHT22;65507;48.454;-2.058;2023-05-27T01:11:08;13.60;66.20
76613;DHT22;65507;48.454;-2.058;2023-05-27T01:13:39;13.60;66.20
76613;DHT22;65507;48.454;-2.058;2023-05-27T01:16:14;13.60;66.20
76613;DHT22;65507;48.454;-2.058;2023-05-27T01:18:41;13.60;66.10
76613;DHT22;65507;48.454;-2.058;2023-05-27T01:21:10;13.60;66.20
76613;DHT22;65507;48.454;-2.058;2023-05-27T01:23:36;13.60;66.20
76613;DHT22;65507;48.454;-2.058;2023-05-27T01:26:04;13.60;66.20
76613;DHT22;65507;48.454;-2.058;2023-05-27T01:28:30;13.60;66.20
76613;DHT22;65507;48.454;-2.058;2023-05-27T01:31:10;13.60;66.10
76613;DHT22;65507;48.454;-2.058;2023-05-27T01:33:38;13.60;66.10
76613;DHT22;65507;48.454;-2.058;2023-05-27T01:36:09;13.60;66.00
76613;DHT22;65507;48.454;-2.058;2023-05-27T01:38:35;13.60;66.00
76613;DHT22;65507;48.454;-2.058;2023-05-27T01:41:02;13.60;66.00
76613;DHT22;65507;48.454;-2.058;2023-05-27T01:43:27;13.60;66.00
76613;DHT22;65507;48.454;-2.058;2023-05-27T01:45:53;13.60;66.00
76613;DHT22;65507;48.454;-2.058;2023-05-27T01:48:19;13.60;65.90
76613;DHT22;65507;48.454;-2.058;2023-05-27T01:50:45;13.60;66.00
76613;DHT22;65507;48.454;-2.058;2023-05-27T01:53:10;13.60;66.20
76613;DHT22;65507;48.454;-2.058;2023-05-27T01:55:37;13.60;66.30
76613;DHT22;65507;48.454;-2.058;2023-05-27T01:58:03;13.60;66.30
76613;DHT22;65507;48.454;-2.058;2023-05-27T02:00:28;13.60;66.20
76613;DHT22;65507;48.454;-2.058;2023-05-27T02:02:54;13.60;66.20
76613;DHT22;65507;48.454;-2.058;2023-05-27T02:05:19;13.50;66.30
76613;DHT22;65507;48.454;-2.058;2023-05-27T02:07:45;13.50;66.40
76613;DHT22;65507;48.454;-2.058;2023-05-27T02:10:10;13.50;66.60
76613;DHT22;65507;48.454;-2.058;2023-05-27T02:12:36;13.50;66.50
76613;DHT22;65507;48.454;-2.058;2023-05-27T02:15:01;13.50;66.50
76613;DHT22;65507;48.454;-2.058;2023-05-27T02:17:28;13.50;66.60
76613;DHT22;65507;48.454;-2.058;2023-05-27T02:19:53;13.40;66.60
76613;DHT22;65507;48.454;-2.058;2023-05-27T02:22:21;13.40;66.60
76613;DHT22;65507;48.454;-2.058;2023-05-27T02:24:46;13.50;66.50
76613;DHT22;65507;48.454;-2.058;2023-05-27T02:27:12;13.50;66.50
76613;DHT22;65507;48.454;-2.058;2023-05-27T02:29:38;13.50;66.50
76613;DHT22;65507;48.454;-2.058;2023-05-27T02:32:03;13.50;66.50
76613;DHT22;65507;48.454;-2.058;2023-05-27T02:34:29;13.50;66.40
76613;DHT22;65507;48.454;-2.058;2023-05-27T02:36:54;13.50;66.40
76613;DHT22;65507;48.454;-2.058;2023-05-27T02:39:20;13.50;66.40
76613;DHT22;65507;48.454;-2.058;2023-05-27T02:41:46;13.50;66.40
76613;DHT22;65507;48.454;-2.058;2023-05-27T02:44:11;13.40;66.50
76613;DHT22;65507;48.454;-2.058;2023-05-27T02:46:37;13.40;66.70
76613;DHT22;65507;48.454;-2.058;2023-05-27T02:49:02;13.30;66.80
76613;DHT22;65507;48.454;-2.058;2023-05-27T02:51:31;13.30;66.90
76613;DHT22;65507;48.454;-2.058;2023-05-27T02:53:57;13.20;67.00
76613;DHT22;65507;48.454;-2.058;2023-05-27T02:56:22;13.20;67.20
76613;DHT22;65507;48.454;-2.058;2023-05-27T02:58:48;13.20;67.40
76613;DHT22;65507;48.454;-2.058;2023-05-27T03:01:13;13.10;67.50
76613;DHT22;65507;48.454;-2.058;2023-05-27T03:03:39;13.10;67.60
76613;DHT22;65507;48.454;-2.058;2023-05-27T03:06:04;13.00;67.60
76613;DHT22;65507;48.454;-2.058;2023-05-27T03:08:30;13.00;67.70
76613;DHT22;65507;48.454;-2.058;2023-05-27T03:10:56;12.90;67.80
76613;DHT22;65507;48.454;-2.058;2023-05-27T03:13:22;12.90;67.80
76613;DHT22;65507;48.454;-2.058;2023-05-27T03:15:47;12.90;67.90
76613;DHT22;65507;48.454;-2.058;2023-05-27T03:18:13;12.90;68.00
76613;DHT22;65507;48.454;-2.058;2023-05-27T03:20:39;12.80;68.00
76613;DHT22;65507;48.454;-2.058;2023-05-27T03:23:04;12.80;68.10
76613;DHT22;65507;48.454;-2.058;2023-05-27T03:25:30;12.70;68.20
76613;DHT22;65507;48.454;-2.058;2023-05-27T03:27:56;12.70;68.30
76613;DHT22;65507;48.454;-2.058;2023-05-27T03:30:21;12.70;68.20
76613;DHT22;65507;48.454;-2.058;2023-05-27T03:32:47;12.70;68.30
76613;DHT22;65507;48.454;-2.058;2023-05-27T03:35:12;12.60;68.20
76613;DHT22;65507;48.454;-2.058;2023-05-27T03:37:38;12.60;68.20
76613;DHT22;65507;48.454;-2.058;2023-05-27T03:40:03;12.60;68.30
76613;DHT22;65507;48.454;-2.058;2023-05-27T03:42:29;12.50;68.20
76613;DHT22;65507;48.454;-2.058;2023-05-27T03:44:55;12.50;68.20
76613;DHT22;65507;48.454;-2.058;2023-05-27T03:47:20;12.50;68.20
76613;DHT22;65507;48.454;-2.058;2023-05-27T03:49:47;12.50;68.20
76613;DHT22;65507;48.454;-2.058;2023-05-27T03:52:12;12.40;68.20
76613;DHT22;65507;48.454;-2.058;2023-05-27T03:54:38;12.40;68.20
76613;DHT22;65507;48.454;-2.058;2023-05-27T03:57:03;12.40;68.20
76613;DHT22;65507;48.454;-2.058;2023-05-27T03:59:29;12.30;68.20
76613;DHT22;65507;48.454;-2.058;2023-05-27T04:01:55;12.30;68.20
76613;DHT22;65507;48.454;-2.058;2023-05-27T04:04:20;12.30;68.40
76613;DHT22;65507;48.454;-2.058;2023-05-27T04:06:46;12.30;68.40
76613;DHT22;65507;48.454;-2.058;2023-05-27T04:09:11;12.30;68.40
76613;DHT22;65507;48.454;-2.058;2023-05-27T04:11:37;12.30;68.30
76613;DHT22;65507;48.454;-2.058;2023-05-27T04:14:02;12.30;68.30
76613;DHT22;65507;48.454;-2.058;2023-05-27T04:16:29;12.20;68.40
76613;DHT22;65507;48.454;-2.058;2023-05-27T04:18:56;12.20;68.40
76613;DHT22;65507;48.454;-2.058;2023-05-27T04:21:22;12.20;68.40
76613;DHT22;65507;48.454;-2.058;2023-05-27T04:23:47;12.20;68.40
76613;DHT22;65507;48.454;-2.058;2023-05-27T04:26:13;12.20;68.50
76613;DHT22;65507;48.454;-2.058;2023-05-27T04:28:40;12.20;68.50
76613;DHT22;65507;48.454;-2.058;2023-05-27T04:31:06;12.20;68.50
76613;DHT22;65507;48.454;-2.058;2023-05-27T04:33:40;12.20;68.50
76613;DHT22;65507;48.454;-2.058;2023-05-27T04:36:06;12.10;68.50
76613;DHT22;65507;48.454;-2.058;2023-05-27T04:38:32;12.10;68.50
76613;DHT22;65507;48.454;-2.058;2023-05-27T04:40:59;12.10;68.50
76613;DHT22;65507;48.454;-2.058;2023-05-27T04:43:25;12.10;68.50
76613;DHT22;65507;48.454;-2.058;2023-05-27T04:45:52;12.10;68.50
76613;DHT22;65507;48.454;-2.058;2023-05-27T04:48:17;12.10;68.60
76613;DHT22;65507;48.454;-2.058;2023-05-27T04:50:43;12.20;68.40
76613;DHT22;65507;48.454;-2.058;2023-05-27T04:53:08;12.20;68.30
76613;DHT22;65507;48.454;-2.058;2023-05-27T04:55:34;12.20;68.30
76613;DHT22;65507;48.454;-2.058;2023-05-27T04:58:00;12.20;68.30
76613;DHT22;65507;48.454;-2.058;2023-05-27T05:00:29;12.30;68.10
76613;DHT22;65507;48.454;-2.058;2023-05-27T05:03:05;12.30;68.10
76613;DHT22;65507;48.454;-2.058;2023-05-27T05:05:32;12.40;68.10
76613;DHT22;65507;48.454;-2.058;2023-05-27T05:07:58;12.40;68.10
76613;DHT22;65507;48.454;-2.058;2023-05-27T05:10:24;12.50;67.90
76613;DHT22;65507;48.454;-2.058;2023-05-27T05:12:49;12.60;67.80
76613;DHT22;65507;48.454;-2.058;2023-05-27T05:15:15;12.60;67.60
76613;DHT22;65507;48.454;-2.058;2023-05-27T05:17:41;12.70;67.60
76613;DHT22;65507;48.454;-2.058;2023-05-27T05:20:06;12.80;67.60
76613;DHT22;65507;48.454;-2.058;2023-05-27T05:22:34;12.90;67.30
76613;DHT22;65507;48.454;-2.058;2023-05-27T05:24:59;13.00;67.20
76613;DHT22;65507;48.454;-2.058;2023-05-27T05:27:25;13.10;67.10
76613;DHT22;65507;48.454;-2.058;2023-05-27T05:29:51;13.20;67.00
76613;DHT22;65507;48.454;-2.058;2023-05-27T05:32:16;13.30;66.80
76613;DHT22;65507;48.454;-2.058;2023-05-27T05:34:42;13.40;66.70
76613;DHT22;65507;48.454;-2.058;2023-05-27T05:37:08;13.50;66.70
76613;DHT22;65507;48.454;-2.058;2023-05-27T05:39:36;13.60;66.60
76613;DHT22;65507;48.454;-2.058;2023-05-27T05:42:01;13.70;66.40
76613;DHT22;65507;48.454;-2.058;2023-05-27T05:44:27;13.70;66.40
76613;DHT22;65507;48.454;-2.058;2023-05-27T05:46:53;13.80;66.40
76613;DHT22;65507;48.454;-2.058;2023-05-27T05:49:18;13.90;66.30
76613;DHT22;65507;48.454;-2.058;2023-05-27T05:51:44;14.10;66.20
76613;DHT22;65507;48.454;-2.058;2023-05-27T05:54:10;14.10;66.00
76613;DHT22;65507;48.454;-2.058;2023-05-27T05:56:35;14.30;66.00
76613;DHT22;65507;48.454;-2.058;2023-05-27T05:59:01;14.30;66.00
76613;DHT22;65507;48.454;-2.058;2023-05-27T06:01:27;14.40;65.90
76613;DHT22;65507;48.454;-2.058;2023-05-27T06:03:53;14.50;65.90
76613;DHT22;65507;48.454;-2.058;2023-05-27T06:06:18;14.50;66.00
76613;DHT22;65507;48.454;-2.058;2023-05-27T06:08:44;14.60;66.10
76613;DHT22;65507;48.454;-2.058;2023-05-27T06:11:10;14.70;65.90
76613;DHT22;65507;48.454;-2.058;2023-05-27T06:13:36;14.90;65.70
76613;DHT22;65507;48.454;-2.058;2023-05-27T06:16:01;15.00;65.70
76613;DHT22;65507;48.454;-2.058;2023-05-27T06:18:27;15.00;65.60
76613;DHT22;65507;48.454;-2.058;2023-05-27T06:20:52;15.10;66.60
76613;DHT22;65507;48.454;-2.058;2023-05-27T06:23:18;15.20;65.40
76613;DHT22;65507;48.454;-2.058;2023-05-27T06:25:43;15.30;65.20
76613;DHT22;65507;48.454;-2.058;2023-05-27T06:28:09;15.50;65.10
76613;DHT22;65507;48.454;-2.058;2023-05-27T06:30:35;15.60;64.80
76613;DHT22;65507;48.454;-2.058;2023-05-27T06:33:01;16.30;65.00
76613;DHT22;65507;48.454;-2.058;2023-05-27T06:35:27;15.90;64.60
76613;DHT22;65507;48.454;-2.058;2023-05-27T06:37:53;16.00;64.50
76613;DHT22;65507;48.454;-2.058;2023-05-27T06:40:18;16.10;64.40
76613;DHT22;65507;48.454;-2.058;2023-05-27T06:42:44;16.20;64.40
76613;DHT22;65507;48.454;-2.058;2023-05-27T06:45:10;16.30;64.40
76613;DHT22;65507;48.454;-2.058;2023-05-27T06:47:39;16.30;64.30
76613;DHT22;65507;48.454;-2.058;2023-05-27T06:50:05;16.40;64.30
76613;DHT22;65507;48.454;-2.058;2023-05-27T06:52:30;16.50;64.20
76613;DHT22;65507;48.454;-2.058;2023-05-27T06:54:56;16.60;64.20
76613;DHT22;65507;48.454;-2.058;2023-05-27T06:57:21;16.60;64.30
76613;DHT22;65507;48.454;-2.058;2023-05-27T06:59:47;16.70;64.40
76613;DHT22;65507;48.454;-2.058;2023-05-27T07:02:13;16.70;64.30
76613;DHT22;65507;48.454;-2.058;2023-05-27T07:04:38;16.80;64.30
76613;DHT22;65507;48.454;-2.058;2023-05-27T07:07:04;16.70;64.40
76613;DHT22;65507;48.454;-2.058;2023-05-27T07:09:29;16.70;64.70
76613;DHT22;65507;48.454;-2.058;2023-05-27T07:11:55;16.60;64.80
76613;DHT22;65507;48.454;-2.058;2023-05-27T07:14:20;16.60;65.00
76613;DHT22;65507;48.454;-2.058;2023-05-27T07:16:46;16.70;64.90
76613;DHT22;65507;48.454;-2.058;2023-05-27T07:19:11;16.70;64.80
76613;DHT22;65507;48.454;-2.058;2023-05-27T07:21:37;16.80;64.80
76613;DHT22;65507;48.454;-2.058;2023-05-27T07:24:02;16.70;64.80
76613;DHT22;65507;48.454;-2.058;2023-05-27T07:26:29;16.80;64.80
76613;DHT22;65507;48.454;-2.058;2023-05-27T07:28:56;16.80;64.80
76613;DHT22;65507;48.454;-2.058;2023-05-27T07:31:21;16.90;64.80
76613;DHT22;65507;48.454;-2.058;2023-05-27T07:33:47;17.00;64.60
76613;DHT22;65507;48.454;-2.058;2023-05-27T07:36:12;17.00;64.40
76613;DHT22;65507;48.454;-2.058;2023-05-27T07:38:38;17.20;64.30
76613;DHT22;65507;48.454;-2.058;2023-05-27T07:41:03;17.30;64.10
76613;DHT22;65507;48.454;-2.058;2023-05-27T07:43:29;17.40;64.00
76613;DHT22;65507;48.454;-2.058;2023-05-27T07:45:54;17.50;63.70
76613;DHT22;65507;48.454;-2.058;2023-05-27T07:48:20;17.60;63.60
76613;DHT22;65507;48.454;-2.058;2023-05-27T07:50:46;17.70;63.40
76613;DHT22;65507;48.454;-2.058;2023-05-27T07:53:11;17.70;63.40
76613;DHT22;65507;48.454;-2.058;2023-05-27T07:55:37;17.80;63.40
76613;DHT22;65507;48.454;-2.058;2023-05-27T07:58:02;18.00;63.30
76613;DHT22;65507;48.454;-2.058;2023-05-27T08:00:28;18.00;63.10
76613;DHT22;65507;48.454;-2.058;2023-05-27T08:02:53;18.00;63.20
76613;DHT22;65507;48.454;-2.058;2023-05-27T08:05:19;18.10;63.20
76613;DHT22;65507;48.454;-2.058;2023-05-27T08:07:45;18.10;63.20
76613;DHT22;65507;48.454;-2.058;2023-05-27T08:10:10;18.20;63.30
76613;DHT22;65507;48.454;-2.058;2023-05-27T08:12:37;18.20;63.20
76613;DHT22;65507;48.454;-2.058;2023-05-27T08:15:02;18.30;63.10
76613;DHT22;65507;48.454;-2.058;2023-05-27T08:17:28;18.40;62.90
76613;DHT22;65507;48.454;-2.058;2023-05-27T08:19:54;18.60;62.80
76613;DHT22;65507;48.454;-2.058;2023-05-27T08:22:19;18.70;62.70
76613;DHT22;65507;48.454;-2.058;2023-05-27T08:24:45;18.80;62.60
76613;DHT22;65507;48.454;-2.058;2023-05-27T08:27:13;18.90;62.50
76613;DHT22;65507;48.454;-2.058;2023-05-27T08:29:38;19.00;62.40
76613;DHT22;65507;48.454;-2.058;2023-05-27T08:32:04;19.10;62.30
76613;DHT22;65507;48.454;-2.058;2023-05-27T08:34:30;19.10;62.20
76613;DHT22;65507;48.454;-2.058;2023-05-27T08:36:55;19.10;62.20
76613;DHT22;65507;48.454;-2.058;2023-05-27T08:39:21;19.20;62.30
76613;DHT22;65507;48.454;-2.058;2023-05-27T08:41:46;19.20;62.30
76613;DHT22;65507;48.454;-2.058;2023-05-27T08:44:12;19.30;62.30
76613;DHT22;65507;48.454;-2.058;2023-05-27T08:46:37;19.40;62.30
76613;DHT22;65507;48.454;-2.058;2023-05-27T08:49:03;19.40;62.20
76613;DHT22;65507;48.454;-2.058;2023-05-27T08:51:31;19.50;62.20
76613;DHT22;65507;48.454;-2.058;2023-05-27T08:53:57;19.60;62.20
76613;DHT22;65507;48.454;-2.058;2023-05-27T08:56:23;19.60;62.10
76613;DHT22;65507;48.454;-2.058;2023-05-27T08:58:50;19.70;62.00
76613;DHT22;65507;48.454;-2.058;2023-05-27T09:01:17;19.60;62.00
76613;DHT22;65507;48.454;-2.058;2023-05-27T09:03:43;19.60;62.20
76613;DHT22;65507;48.454;-2.058;2023-05-27T09:06:08;19.70;62.20
76613;DHT22;65507;48.454;-2.058;2023-05-27T09:08:34;19.60;62.20
76613;DHT22;65507;48.454;-2.058;2023-05-27T09:11:00;19.70;62.30
76613;DHT22;65507;48.454;-2.058;2023-05-27T09:13:30;19.60;62.10
76613;DHT22;65507;48.454;-2.058;2023-05-27T09:15:59;19.60;62.40
76613;DHT22;65507;48.454;-2.058;2023-05-27T09:18:29;19.60;62.40
76613;DHT22;65507;48.454;-2.058;2023-05-27T09:20:55;19.60;62.20
76613;DHT22;65507;48.454;-2.058;2023-05-27T09:23:21;19.50;62.30
76613;DHT22;65507;48.454;-2.058;2023-05-27T09:25:46;19.60;62.30
76613;DHT22;65507;48.454;-2.058;2023-05-27T09:28:19;19.60;62.10
76613;DHT22;65507;48.454;-2.058;2023-05-27T09:30:45;19.70;62.00
76613;DHT22;65507;48.454;-2.058;2023-05-27T09:33:12;19.80;61.90
76613;DHT22;65507;48.454;-2.058;2023-05-27T09:35:38;19.90;61.70
76613;DHT22;65507;48.454;-2.058;2023-05-27T09:38:06;20.00;61.40
76613;DHT22;65507;48.454;-2.058;2023-05-27T09:40:31;20.10;61.40
76613;DHT22;65507;48.454;-2.058;2023-05-27T09:42:57;20.20;61.20
76613;DHT22;65507;48.454;-2.058;2023-05-27T09:45:22;20.20;61.10
76613;DHT22;65507;48.454;-2.058;2023-05-27T09:47:49;20.30;61.00
76613;DHT22;65507;48.454;-2.058;2023-05-27T09:50:15;20.40;60.90
76613;DHT22;65507;48.454;-2.058;2023-05-27T09:52:41;20.60;60.70
76613;DHT22;65507;48.454;-2.058;2023-05-27T09:55:08;20.70;60.50
76613;DHT22;65507;48.454;-2.058;2023-05-27T09:57:35;20.90;60.30
76613;DHT22;65507;48.454;-2.058;2023-05-27T10:00:02;21.00;60.10
76613;DHT22;65507;48.454;-2.058;2023-05-27T10:02:30;21.10;60.00
76613;DHT22;65507;48.454;-2.058;2023-05-27T10:04:56;21.30;59.90
76613;DHT22;65507;48.454;-2.058;2023-05-27T10:07:23;21.50;59.70
76613;DHT22;65507;48.454;-2.058;2023-05-27T10:09:49;21.60;59.60
76613;DHT22;65507;48.454;-2.058;2023-05-27T10:12:16;21.70;59.40
76613;DHT22;65507;48.454;-2.058;2023-05-27T10:14:42;21.80;59.30
76613;DHT22;65507;48.454;-2.058;2023-05-27T10:17:09;21.90;59.20
76613;DHT22;65507;48.454;-2.058;2023-05-27T10:19:35;22.00;59.00
76613;DHT22;65507;48.454;-2.058;2023-05-27T10:22:08;22.00;59.20
76613;DHT22;65507;48.454;-2.058;2023-05-27T10:24:35;22.10;60.00
76613;DHT22;65507;48.454;-2.058;2023-05-27T10:27:00;22.00;59.10
76613;DHT22;65507;48.454;-2.058;2023-05-27T10:29:34;21.90;59.50
76613;DHT22;65507;48.454;-2.058;2023-05-27T10:32:01;21.70;59.60
76613;DHT22;65507;48.454;-2.058;2023-05-27T10:34:34;21.70;59.70
76613;DHT22;65507;48.454;-2.058;2023-05-27T10:37:00;21.70;59.80
76613;DHT22;65507;48.454;-2.058;2023-05-27T10:39:26;21.70;59.70
76613;DHT22;65507;48.454;-2.058;2023-05-27T10:41:52;21.80;59.50
76613;DHT22;65507;48.454;-2.058;2023-05-27T10:44:35;21.90;59.40
76613;DHT22;65507;48.454;-2.058;2023-05-27T10:47:02;21.90;60.10
76613;DHT22;65507;48.454;-2.058;2023-05-27T10:49:28;22.00;59.00
76613;DHT22;65507;48.454;-2.058;2023-05-27T10:52:18;22.10;58.80
76613;DHT22;65507;48.454;-2.058;2023-05-27T10:54:48;22.10;58.80
76613;DHT22;65507;48.454;-2.058;2023-05-27T10:57:17;22.00;58.80
76613;DHT22;65507;48.454;-2.058;2023-05-27T10:59:53;21.90;59.00
76613;DHT22;65507;48.454;-2.058;2023-05-27T11:02:19;21.90;59.00
76613;DHT22;65507;48.454;-2.058;2023-05-27T11:04:45;21.90;59.00
76613;DHT22;65507;48.454;-2.058;2023-05-27T11:07:11;22.00;58.80
76613;DHT22;65507;48.454;-2.058;2023-05-27T11:09:46;22.10;58.70
76613;DHT22;65507;48.454;-2.058;2023-05-27T11:12:15;22.20;58.50
76613;DHT22;65507;48.454;-2.058;2023-05-27T11:15:02;22.40;58.30
76613;DHT22;65507;48.454;-2.058;2023-05-27T11:17:27;22.50;58.00
76613;DHT22;65507;48.454;-2.058;2023-05-27T11:19:54;22.60;58.00
76613;DHT22;65507;48.454;-2.058;2023-05-27T11:22:19;22.70;57.90
76613;DHT22;65507;48.454;-2.058;2023-05-27T11:24:58;22.60;57.80
76613;DHT22;65507;48.454;-2.058;2023-05-27T11:27:23;22.50;58.20
76613;DHT22;65507;48.454;-2.058;2023-05-27T11:29:50;22.50;58.10
76613;DHT22;65507;48.454;-2.058;2023-05-27T11:32:16;22.50;58.10
76613;DHT22;65507;48.454;-2.058;2023-05-27T11:34:46;22.50;58.10
76613;DHT22;65507;48.454;-2.058;2023-05-27T11:37:12;22.50;58.20
76613;DHT22;65507;48.454;-2.058;2023-05-27T11:39:37;22.60;59.10
76613;DHT22;65507;48.454;-2.058;2023-05-27T11:42:08;22.60;58.00
76613;DHT22;65507;48.454;-2.058;2023-05-27T11:44:33;22.60;58.90
76613;DHT22;65507;48.454;-2.058;2023-05-27T11:47:00;22.60;57.90
76613;DHT22;65507;48.454;-2.058;2023-05-27T11:49:26;22.50;58.10
76613;DHT22;65507;48.454;-2.058;2023-05-27T11:51:54;22.50;58.10
76613;DHT22;65507;48.454;-2.058;2023-05-27T11:54:22;22.50;58.10
76613;DHT22;65507;48.454;-2.058;2023-05-27T11:56:48;22.50;58.00
76613;DHT22;65507;48.454;-2.058;2023-05-27T11:59:14;22.60;57.90
76613;DHT22;65507;48.454;-2.058;2023-05-27T12:01:40;22.50;57.80
76613;DHT22;65507;48.454;-2.058;2023-05-27T12:04:06;22.50;57.80
76613;DHT22;65507;48.454;-2.058;2023-05-27T12:06:31;22.60;57.80
76613;DHT22;65507;48.454;-2.058;2023-05-27T12:08:57;22.60;57.60
76613;DHT22;65507;48.454;-2.058;2023-05-27T12:11:22;22.60;57.60
76613;DHT22;65507;48.454;-2.058;2023-05-27T12:13:48;22.60;57.50
76613;DHT22;65507;48.454;-2.058;2023-05-27T12:16:14;22.70;57.40
76613;DHT22;65507;48.454;-2.058;2023-05-27T12:18:39;22.70;57.30
76613;DHT22;65507;48.454;-2.058;2023-05-27T12:21:07;22.80;57.20
76613;DHT22;65507;48.454;-2.058;2023-05-27T12:23:33;23.00;57.10
76613;DHT22;65507;48.454;-2.058;2023-05-27T12:25:58;23.10;56.70
76613;DHT22;65507;48.454;-2.058;2023-05-27T12:28:24;23.20;56.80
76613;DHT22;65507;48.454;-2.058;2023-05-27T12:30:49;23.20;56.70
76613;DHT22;65507;48.454;-2.058;2023-05-27T12:33:15;23.20;56.60
76613;DHT22;65507;48.454;-2.058;2023-05-27T12:35:40;23.30;56.50
76613;DHT22;65507;48.454;-2.058;2023-05-27T12:38:06;23.30;56.40
76613;DHT22;65507;48.454;-2.058;2023-05-27T12:40:31;23.30;56.60
76613;DHT22;65507;48.454;-2.058;2023-05-27T12:42:58;23.40;56.70
76613;DHT22;65507;48.454;-2.058;2023-05-27T12:45:24;23.50;56.50
76613;DHT22;65507;48.454;-2.058;2023-05-27T12:47:54;23.60;56.40
76613;DHT22;65507;48.454;-2.058;2023-05-27T12:50:20;23.60;56.30
76613;DHT22;65507;48.454;-2.058;2023-05-27T12:52:46;23.70;56.30
76613;DHT22;65507;48.454;-2.058;2023-05-27T12:55:12;23.80;56.20
76613;DHT22;65507;48.454;-2.058;2023-05-27T12:57:38;23.80;56.00
76613;DHT22;65507;48.454;-2.058;2023-05-27T13:00:04;23.80;56.20
76613;DHT22;65507;48.454;-2.058;2023-05-27T13:02:29;23.70;56.30
76613;DHT22;65507;48.454;-2.058;2023-05-27T13:04:55;23.70;56.40
76613;DHT22;65507;48.454;-2.058;2023-05-27T13:07:22;23.80;56.30
76613;DHT22;65507;48.454;-2.058;2023-05-27T13:09:47;23.90;56.20
76613;DHT22;65507;48.454;-2.058;2023-05-27T13:12:13;23.90;56.10
76613;DHT22;65507;48.454;-2.058;2023-05-27T13:14:38;23.90;56.10
76613;DHT22;65507;48.454;-2.058;2023-05-27T13:17:04;23.90;56.20
76613;DHT22;65507;48.454;-2.058;2023-05-27T13:19:31;23.90;57.20
76613;DHT22;65507;48.454;-2.058;2023-05-27T13:21:57;24.00;56.30
76613;DHT22;65507;48.454;-2.058;2023-05-27T13:24:22;24.00;56.20
76613;DHT22;65507;48.454;-2.058;2023-05-27T13:26:48;24.00;56.10
76613;DHT22;65507;48.454;-2.058;2023-05-27T13:29:15;24.10;56.10
76613;DHT22;65507;48.454;-2.058;2023-05-27T13:31:40;24.20;56.00
76613;DHT22;65507;48.454;-2.058;2023-05-27T13:34:06;24.20;55.90
76613;DHT22;65507;48.454;-2.058;2023-05-27T13:36:31;24.20;55.90
76613;DHT22;65507;48.454;-2.058;2023-05-27T13:38:57;24.30;55.90
76613;DHT22;65507;48.454;-2.058;2023-05-27T13:41:23;24.30;55.80
76613;DHT22;65507;48.454;-2.058;2023-05-27T13:43:49;24.30;55.90
76613;DHT22;65507;48.454;-2.058;2023-05-27T13:46:14;24.20;56.10
76613;DHT22;65507;48.454;-2.058;2023-05-27T13:48:40;24.20;56.20
76613;DHT22;65507;48.454;-2.058;2023-05-27T13:51:05;24.10;56.20
76613;DHT22;65507;48.454;-2.058;2023-05-27T13:53:32;24.10;56.30
76613;DHT22;65507;48.454;-2.058;2023-05-27T13:55:57;24.10;56.20
76613;DHT22;65507;48.454;-2.058;2023-05-27T13:58:23;24.20;56.10
76613;DHT22;65507;48.454;-2.058;2023-05-27T14:00:48;24.20;56.00
76613;DHT22;65507;48.454;-2.058;2023-05-27T14:03:14;24.20;56.00
76613;DHT22;65507;48.454;-2.058;2023-05-27T14:05:39;24.20;56.10
76613;DHT22;65507;48.454;-2.058;2023-05-27T14:08:05;24.20;56.00
76613;DHT22;65507;48.454;-2.058;2023-05-27T14:10:33;24.20;56.10
76613;DHT22;65507;48.454;-2.058;2023-05-27T14:12:59;24.20;56.10
76613;DHT22;65507;48.454;-2.058;2023-05-27T14:15:24;24.20;56.00
76613;DHT22;65507;48.454;-2.058;2023-05-27T14:17:53;24.10;56.10
76613;DHT22;65507;48.454;-2.058;2023-05-27T14:20:19;24.10;56.10
76613;DHT22;65507;48.454;-2.058;2023-05-27T14:22:45;24.10;56.20
76613;DHT22;65507;48.454;-2.058;2023-05-27T14:25:11;24.10;56.10
76613;DHT22;65507;48.454;-2.058;2023-05-27T14:27:36;24.20;56.10
76613;DHT22;65507;48.454;-2.058;2023-05-27T14:30:02;24.20;55.80
76613;DHT22;65507;48.454;-2.058;2023-05-27T14:32:28;24.20;55.70
76613;DHT22;65507;48.454;-2.058;2023-05-27T14:34:53;24.10;55.80
76613;DHT22;65507;48.454;-2.058;2023-05-27T14:37:21;24.20;55.80
76613;DHT22;65507;48.454;-2.058;2023-05-27T14:39:52;24.20;55.70
76613;DHT22;65507;48.454;-2.058;2023-05-27T14:42:18;24.20;55.60
76613;DHT22;65507;48.454;-2.058;2023-05-27T14:44:44;24.20;55.70
76613;DHT22;65507;48.454;-2.058;2023-05-27T14:47:09;24.10;55.70
76613;DHT22;65507;48.454;-2.058;2023-05-27T14:49:35;24.20;55.80
76613;DHT22;65507;48.454;-2.058;2023-05-27T14:52:01;24.20;55.60
76613;DHT22;65507;48.454;-2.058;2023-05-27T14:54:27;24.20;55.60
76613;DHT22;65507;48.454;-2.058;2023-05-27T14:56:52;24.20;55.50
76613;DHT22;65507;48.454;-2.058;2023-05-27T14:59:18;24.20;55.50
76613;DHT22;65507;48.454;-2.058;2023-05-27T15:01:47;24.20;55.40
76613;DHT22;65507;48.454;-2.058;2023-05-27T15:04:12;24.30;55.50
76613;DHT22;65507;48.454;-2.058;2023-05-27T15:06:38;24.40;55.40
76613;DHT22;65507;48.454;-2.058;2023-05-27T15:09:03;24.40;55.20